Time;durP1;ratioP1;P1;durP2;ratioP2;P2;SDS_P1;SDS_P2;PMS_P1;PMS_P2;Temp;Humidity;BMP_temperature;BMP_pressure;BME280_temperature;BME280_humidity;BME280_pressure;Samples;Min_cycle;Max_cycle;Signal;HPM_P1;HPM_P2
2022/07/24 00:00:38;;;;;;;7.22;4.85;;;;;;;22.67;77.46;100054.19;5053837;28;20052;-79
2022/07/24 00:03:03;;;;;;;7.45;4.60;;;;;;;22.68;77.38;100057.78;5067204;28;20045;-80
2022/07/24 00:05:29;;;;;;;6.07;4.60;;;;;;;22.66;77.63;100046.22;5052592;28;20051;-79
2022/07/24 00:07:55;;;;;;;5.82;4.60;;;;;;;22.63;77.96;100045.22;5061523;28;20485;-81
2022/07/24 00:10:20;;;;;;;4.97;4.47;;;;;;;22.62;78.22;100046.50;5071914;28;20093;-85
2022/07/24 00:12:46;;;;;;;6.13;4.60;;;;;;;22.66;77.92;100080.91;5071860;28;20138;-80
2022/07/24 00:15:12;;;;;;;6.68;4.82;;;;;;;22.62;79.27;100085.31;5072097;28;20040;-80
2022/07/24 00:17:37;;;;;;;7.53;4.90;;;;;;;22.48;81.48;100055.31;5050447;28;20048;-80
2022/07/24 00:20:05;;;;;;;6.03;4.90;;;;;;;22.26;86.36;100054.06;5033977;28;20457;-80
2022/07/24 00:22:31;;;;;;;7.38;5.50;;;;;;;22.07;90.48;100038.97;5050618;28;20123;-80
2022/07/24 00:24:56;;;;;;;7.18;5.30;;;;;;;21.75;96.32;100043.34;5033988;28;20203;-80
2022/07/24 00:27:22;;;;;;;5.72;5.10;;;;;;;21.58;98.63;100029.22;5055038;28;20040;-80
2022/07/24 00:29:47;;;;;;;6.00;5.20;;;;;;;21.52;100.00;100013.56;5054339;28;20158;-80
2022/07/24 00:32:13;;;;;;;8.82;5.65;;;;;;;21.20;100.00;100016.63;5052250;28;20518;-80
2022/07/24 00:34:38;;;;;;;6.82;5.68;;;;;;;21.18;100.00;100015.59;5070993;28;20035;-80
2022/07/24 00:37:04;;;;;;;6.85;5.90;;;;;;;21.05;100.00;100020.91;5071338;28;20094;-80
2022/07/24 00:39:30;;;;;;;8.07;5.43;;;;;;;20.93;100.00;100023.72;5037467;28;20530;-80
2022/07/24 00:41:56;;;;;;;6.07;5.47;;;;;;;20.88;100.00;100018.06;5069767;28;20089;-80
2022/07/24 00:44:22;;;;;;;6.75;6.03;;;;;;;20.85;100.00;100007.81;5068569;28;20044;-80
2022/07/24 00:46:47;;;;;;;7.45;5.85;;;;;;;20.81;100.00;99996.00;5052801;28;20036;-80
2022/07/24 00:49:15;;;;;;;6.55;5.80;;;;;;;20.84;100.00;99989.34;5072450;28;20036;-89
2022/07/24 00:51:42;;;;;;;7.55;5.70;;;;;;;20.80;100.00;99969.09;5061577;28;20047;-89
2022/07/24 00:54:09;;;;;;;6.57;5.60;;;;;;;20.81;100.00;99979.09;5070567;28;20020;-89
2022/07/24 00:56:35;;;;;;;6.72;5.55;;;;;;;20.83;100.00;99982.16;5053903;28;20036;-87
2022/07/24 00:59:03;;;;;;;6.82;5.40;;;;;;;20.81;100.00;99979.88;5071556;28;20052;-89
2022/07/24 01:01:31;;;;;;;6.70;6.03;;;;;;;20.83;100.00;99973.69;5304601;22;20047;-81
2022/07/24 01:04:12;;;;;;;10.63;5.60;;;;;;;20.91;100.00;99969.09;5866209;22;20373;-83
2022/07/24 01:06:42;;;;;;;6.00;5.40;;;;;;;20.90;100.00;99942.97;5044862;28;20052;-88
2022/07/24 01:09:08;;;;;;;6.47;5.53;;;;;;;20.91;100.00;99943.72;5032304;28;20385;-87
2022/07/24 01:11:33;;;;;;;6.30;5.53;;;;;;;20.92;100.00;99946.06;5047335;28;20075;-87
2022/07/24 01:13:59;;;;;;;6.70;5.82;;;;;;;21.01;100.00;99945.03;5031479;28;20045;-86
2022/07/24 01:16:25;;;;;;;6.18;5.57;;;;;;;21.05;100.00;99942.72;5045675;28;20073;-87
2022/07/24 01:18:50;;;;;;;6.13;5.53;;;;;;;21.06;100.00;99937.88;5026931;28;20048;-87
2022/07/24 01:21:16;;;;;;;9.57;6.00;;;;;;;21.06;100.00;99944.28;5032132;28;20159;-87
2022/07/24 01:24:03;;;;;;;7.03;5.50;;;;;;;21.06;100.00;99938.63;5042926;23;20082;-82
2022/07/24 01:26:29;;;;;;;6.80;5.70;;;;;;;20.98;100.00;99937.59;5047472;28;20115;-83
2022/07/24 01:28:54;;;;;;;5.78;5.07;;;;;;;21.02;100.00;99938.13;5067150;28;20132;-82
2022/07/24 01:31:20;;;;;;;6.22;5.63;;;;;;;21.03;100.00;99944.53;5065539;28;20043;-83
2022/07/24 01:33:46;;;;;;;6.55;5.95;;;;;;;20.97;100.00;99944.53;5046777;28;20055;-83
2022/07/24 01:36:11;;;;;;;6.50;5.78;;;;;;;20.96;100.00;99937.34;5070676;28;20108;-82
2022/07/24 01:38:37;;;;;;;7.10;6.35;;;;;;;20.97;100.00;99958.63;5063910;28;20033;-83
2022/07/24 01:41:02;;;;;;;7.70;6.35;;;;;;;20.97;100.00;99969.91;5068886;28;20131;-81
2022/07/24 01:43:28;;;;;;;8.15;6.28;;;;;;;20.95;100.00;99981.69;5048759;28;20052;-82
2022/07/24 01:45:53;;;;;;;6.85;6.18;;;;;;;20.90;100.00;99976.03;5066723;28;20045;-82
2022/07/24 01:48:19;;;;;;;7.70;6.60;;;;;;;20.84;100.00;99978.06;5070625;28;20131;-81
2022/07/24 01:50:44;;;;;;;7.45;6.20;;;;;;;20.78;100.00;99968.84;5070453;28;20037;-82
2022/07/24 01:53:10;;;;;;;7.68;6.90;;;;;;;20.75;100.00;99969.84;5064725;28;20036;-81
2022/07/24 01:55:35;;;;;;;7.35;6.65;;;;;;;20.73;100.00;99983.69;5052004;28;20048;-81
2022/07/24 01:58:01;;;;;;;8.57;7.05;;;;;;;20.71;100.00;99975.72;5046118;28;20048;-81
2022/07/24 02:00:26;;;;;;;7.88;6.82;;;;;;;20.72;100.00;99985.72;5065987;28;20049;-83
2022/07/24 02:02:52;;;;;;;7.95;7.15;;;;;;;20.73;100.00;99987.28;5034102;28;20052;-83
2022/07/24 02:05:18;;;;;;;8.63;6.97;;;;;;;20.74;100.00;99990.88;5050407;28;20043;-83
2022/07/24 02:07:44;;;;;;;8.02;7.22;;;;;;;20.68;100.00;100001.34;5069017;28;20484;-83
2022/07/24 02:10:11;;;;;;;8.38;6.88;;;;;;;20.71;100.00;99998.28;5066820;28;20044;-82
2022/07/24 02:12:37;;;;;;;9.35;7.13;;;;;;;20.61;100.00;99987.75;5069327;28;20647;-82
2022/07/24 02:15:04;;;;;;;8.13;7.18;;;;;;;20.70;100.00;99996.75;5052668;28;20135;-83
2022/07/24 02:17:29;;;;;;;8.35;6.95;;;;;;;20.64;100.00;99981.88;5051206;28;20115;-82
2022/07/24 02:19:55;;;;;;;8.15;6.72;;;;;;;20.68;100.00;99987.25;5049218;28;20166;-81
2022/07/24 02:22:20;;;;;;;9.73;7.13;;;;;;;20.63;100.00;99985.19;5067559;28;20103;-81
2022/07/24 02:24:46;;;;;;;8.02;7.22;;;;;;;20.59;100.00;99974.16;5067840;28;20363;-81
2022/07/24 02:27:11;;;;;;;8.10;7.25;;;;;;;20.62;100.00;99972.38;5071598;28;20044;-81
2022/07/24 02:29:37;;;;;;;7.32;6.63;;;;;;;20.58;100.00;99960.59;5071132;28;20047;-81
2022/07/24 02:32:02;;;;;;;9.10;7.00;;;;;;;20.58;100.00;99957.78;5072898;28;20048;-81
2022/07/24 02:34:28;;;;;;;7.82;6.85;;;;;;;20.60;100.00;99952.38;5072028;28;20493;-81
2022/07/24 02:36:59;;;;;;;9.40;7.38;;;;;;;20.59;100.00;99950.84;5073019;28;20524;-82
2022/07/24 02:39:25;;;;;;;8.60;7.43;;;;;;;20.66;100.00;99961.63;5056044;28;20040;-82
2022/07/24 02:41:51;;;;;;;7.72;6.90;;;;;;;20.72;100.00;99960.34;5072261;28;20471;-81
2022/07/24 02:44:16;;;;;;;7.68;6.88;;;;;;;20.74;100.00;99976.78;5071878;28;20124;-81
2022/07/24 02:46:42;;;;;;;8.40;6.95;;;;;;;20.70;100.00;99984.72;5070280;28;20124;-81
2022/07/24 02:49:07;;;;;;;7.55;6.78;;;;;;;20.65;100.00;99977.00;5072343;28;20044;-81
2022/07/24 02:51:33;;;;;;;8.20;7.20;;;;;;;20.63;100.00;99993.63;5071145;28;20090;-81
2022/07/24 02:53:58;;;;;;;7.40;6.70;;;;;;;20.62;100.00;100006.19;5050541;28;20086;-81
2022/07/24 02:56:29;;;;;;;7.28;6.57;;;;;;;20.62;100.00;100006.97;5054801;28;20046;-82
2022/07/24 02:58:54;;;;;;;8.10;7.30;;;;;;;20.61;100.00;99999.03;5072298;28;20127;-81
2022/07/24 03:01:20;;;;;;;7.95;7.15;;;;;;;20.70;100.00;100015.72;5072009;28;20116;-81
2022/07/24 03:03:45;;;;;;;8.88;7.00;;;;;;;20.70;100.00;100019.31;5051615;28;20101;-81
2022/07/24 03:06:11;;;;;;;8.18;7.38;;;;;;;20.78;100.00;100025.22;5052461;28;20091;-81
2022/07/24 03:08:37;;;;;;;7.35;6.65;;;;;;;20.85;100.00;100027.53;5073037;28;20500;-81
2022/07/24 03:11:02;;;;;;;8.13;7.32;;;;;;;20.89;100.00;100026.03;5070203;28;20037;-81
2022/07/24 03:13:28;;;;;;;10.98;7.30;;;;;;;20.89;100.00;100030.88;5073456;28;20040;-82
2022/07/24 03:15:59;;;;;;;8.93;6.75;;;;;;;20.93;100.00;100026.53;5039123;28;20044;-83
2022/07/24 03:18:25;;;;;;;8.52;7.30;;;;;;;20.80;100.00;100017.00;5036204;28;20051;-83
2022/07/24 03:20:50;;;;;;;9.10;6.93;;;;;;;20.90;100.00;100038.06;5036261;28;20029;-82
2022/07/24 03:23:17;;;;;;;7.97;7.18;;;;;;;20.99;100.00;100051.91;5071672;28;20390;-82
2022/07/24 03:25:42;;;;;;;7.80;6.90;;;;;;;20.91;100.00;100039.59;5071844;28;20090;-83
2022/07/24 03:28:08;;;;;;;8.52;7.55;;;;;;;20.98;100.00;100050.41;5032810;28;20048;-82
2022/07/24 03:30:34;;;;;;;7.72;7.00;;;;;;;20.96;100.00;100058.59;5071138;28;20048;-82
2022/07/24 03:32:59;;;;;;;8.85;7.05;;;;;;;21.03;100.00;100075.00;5070033;28;20044;-81
2022/07/24 03:35:25;;;;;;;8.27;6.95;;;;;;;20.89;100.00;100062.69;5069128;28;20037;-83
2022/07/24 03:37:51;;;;;;;8.48;6.88;;;;;;;20.87;100.00;100064.44;5070389;28;20067;-83
2022/07/24 03:40:17;;;;;;;8.52;7.13;;;;;;;20.85;100.00;100073.41;5037720;28;20063;-83
2022/07/24 03:42:42;;;;;;;8.48;7.40;;;;;;;20.84;100.00;100073.91;5049762;28;20028;-83
2022/07/24 03:45:08;;;;;;;7.57;6.55;;;;;;;20.87;100.00;100081.34;5071593;28;20515;-83
2022/07/24 03:47:34;;;;;;;8.27;7.47;;;;;;;20.92;100.00;100083.44;5053248;28;20037;-82
2022/07/24 03:49:59;;;;;;;7.78;6.90;;;;;;;20.95;100.00;100094.47;5052804;28;20041;-82
2022/07/24 03:52:25;;;;;;;7.80;6.95;;;;;;;21.03;100.00;100108.09;5070440;28;20046;-80
2022/07/24 03:54:51;;;;;;;11.23;8.00;;;;;;;20.98;100.00;100101.16;5068322;28;20060;-82
2022/07/24 03:57:17;;;;;;;9.05;7.22;;;;;;;20.96;100.00;100098.06;5050266;28;20043;-82
2022/07/24 03:59:43;;;;;;;9.82;7.05;;;;;;;21.02;100.00;100112.97;5068459;28;20502;-83
2022/07/24 04:02:08;;;;;;;8.27;7.32;;;;;;;20.90;100.00;100114.97;5068546;28;20044;-83
2022/07/24 04:04:34;;;;;;;8.77;7.88;;;;;;;20.98;100.00;100120.91;5070341;28;20055;-82
2022/07/24 04:07:00;;;;;;;7.78;7.05;;;;;;;21.00;100.00;100131.66;5070055;28;20036;-83
2022/07/24 04:09:25;;;;;;;7.53;6.82;;;;;;;21.00;100.00;100126.78;5071260;28;20044;-83
2022/07/24 04:11:51;;;;;;;8.75;6.85;;;;;;;21.07;100.00;100131.94;5069959;28;20115;-83
2022/07/24 04:14:16;;;;;;;8.40;7.13;;;;;;;21.03;100.00;100137.03;5069862;28;20044;-81
2022/07/24 04:16:42;;;;;;;9.48;6.95;;;;;;;21.08;100.00;100144.75;5071562;28;20561;-81
2022/07/24 04:19:07;;;;;;;8.30;7.30;;;;;;;21.04;100.00;100144.22;5071695;28;20034;-81
2022/07/24 04:21:33;;;;;;;8.15;7.45;;;;;;;21.04;100.00;100143.47;5071920;28;20489;-81
2022/07/24 04:23:58;;;;;;;7.45;6.63;;;;;;;21.08;100.00;100150.41;5068450;28;20128;-81
2022/07/24 04:26:24;;;;;;;8.50;7.60;;;;;;;21.10;100.00;100159.16;5070315;28;20040;-81
2022/07/24 04:28:50;;;;;;;8.80;7.90;;;;;;;21.13;100.00;100168.66;5070717;28;20045;-81
2022/07/24 04:31:15;;;;;;;8.00;7.10;;;;;;;21.15;100.00;100172.50;5065852;28;20144;-82
2022/07/24 04:33:42;;;;;;;9.40;7.20;;;;;;;21.23;100.00;100179.22;5068042;28;20041;-83
2022/07/24 04:36:07;;;;;;;10.93;7.60;;;;;;;21.21;100.00;100176.13;5051885;28;20050;-83
2022/07/24 04:38:34;;;;;;;9.50;7.22;;;;;;;21.28;100.00;100180.50;5069309;28;20401;-83
2022/07/24 04:40:59;;;;;;;9.88;6.97;;;;;;;21.31;100.00;100185.16;5066321;28;20113;-83
2022/07/24 04:43:25;;;;;;;9.18;7.38;;;;;;;21.36;100.00;100192.84;5050244;28;20493;-83
2022/07/24 04:45:51;;;;;;;9.80;8.00;;;;;;;21.21;100.00;100181.78;5067282;28;20466;-83
2022/07/24 04:48:16;;;;;;;8.80;7.60;;;;;;;21.24;100.00;100185.63;5067681;28;20098;-83
2022/07/24 04:50:42;;;;;;;8.55;7.65;;;;;;;21.36;100.00;100187.97;5049983;28;20465;-81
2022/07/24 04:53:07;;;;;;;8.15;7.30;;;;;;;21.36;100.00;100175.91;5070218;28;20073;-83
2022/07/24 04:55:33;;;;;;;8.63;7.63;;;;;;;21.43;100.00;100197.25;5069345;28;20127;-83
2022/07/24 04:57:59;;;;;;;8.07;7.28;;;;;;;21.47;100.00;100197.78;5066714;28;20397;-83
2022/07/24 05:00:24;;;;;;;8.25;7.40;;;;;;;21.45;100.00;100183.38;5066470;28;20025;-83
2022/07/24 05:02:50;;;;;;;9.40;7.57;;;;;;;21.46;100.00;100190.59;5060924;28;20032;-82
2022/07/24 05:05:15;;;;;;;8.50;7.70;;;;;;;21.51;100.00;100198.31;5063035;28;20033;-83
2022/07/24 05:07:41;;;;;;;9.20;7.63;;;;;;;21.51;100.00;100204.72;5045378;28;20044;-82
2022/07/24 05:10:07;;;;;;;7.97;7.03;;;;;;;21.61;100.00;100208.06;5061772;28;20532;-82
2022/07/24 05:12:33;;;;;;;8.57;7.20;;;;;;;21.61;100.00;100208.06;5059979;28;20069;-81
2022/07/24 05:14:58;;;;;;;8.65;7.75;;;;;;;21.66;100.00;100210.13;5046554;28;20151;-81
2022/07/24 05:17:24;;;;;;;8.13;7.35;;;;;;;21.68;100.00;100201.91;5056410;28;20394;-81
2022/07/24 05:19:49;;;;;;;8.43;7.63;;;;;;;21.72;100.00;100216.56;5051491;28;20041;-81
2022/07/24 05:22:15;;;;;;;8.30;7.50;;;;;;;21.75;100.00;100219.16;5068541;28;20036;-81
2022/07/24 05:24:40;;;;;;;11.88;7.68;;;;;;;21.70;100.00;100216.31;5070570;28;20561;-81
2022/07/24 05:27:28;;;;;;;8.23;7.43;;;;;;;21.67;100.00;100212.47;5069727;28;20053;-81
2022/07/24 05:29:53;;;;;;;8.07;6.95;;;;;;;21.76;100.00;100223.50;5035431;28;20404;-81
2022/07/24 05:32:19;;;;;;;7.85;7.05;;;;;;;21.87;100.00;100219.94;5070941;28;20131;-81
2022/07/24 05:34:44;;;;;;;8.40;7.25;;;;;;;21.91;99.67;100214.03;5070058;28;20107;-81
2022/07/24 05:37:09;;;;;;;8.13;6.97;;;;;;;21.97;99.24;100218.44;5052378;28;20068;-81
2022/07/24 05:39:35;;;;;;;10.05;7.50;;;;;;;22.05;99.16;100215.88;5070372;28;20098;-82
2022/07/24 05:42:01;;;;;;;7.78;6.90;;;;;;;22.02;99.18;100223.31;5069945;28;20460;-82
2022/07/24 05:44:26;;;;;;;9.38;7.05;;;;;;;22.08;98.45;100218.44;5068016;28;20048;-82
2022/07/24 05:46:52;;;;;;;8.98;7.05;;;;;;;22.13;97.49;100214.84;5066680;28;20048;-82
2022/07/24 05:49:23;;;;;;;9.20;7.68;;;;;;;22.21;97.97;100209.47;5067563;28;20074;-83
2022/07/24 05:51:49;;;;;;;8.05;7.35;;;;;;;22.25;97.29;100215.63;5030298;28;20053;-83
2022/07/24 05:54:14;;;;;;;8.25;7.32;;;;;;;22.25;97.08;100221.28;5052110;28;20447;-84
2022/07/24 05:56:40;;;;;;;7.82;6.82;;;;;;;22.35;95.95;100222.59;5068232;28;20036;-84
2022/07/24 05:59:05;;;;;;;7.88;7.05;;;;;;;22.41;96.43;100219.72;5036213;28;20445;-84
2022/07/24 06:01:32;;;;;;;9.13;7.63;;;;;;;22.25;97.65;100221.28;5046017;28;20037;-84
2022/07/24 06:03:58;;;;;;;8.50;7.60;;;;;;;22.39;96.67;100225.91;5062879;28;20036;-84
2022/07/24 06:06:24;;;;;;;8.95;7.90;;;;;;;22.41;95.97;100231.03;5074359;28;20089;-82
2022/07/24 06:08:49;;;;;;;8.30;7.43;;;;;;;22.43;96.78;100222.84;5073982;28;20052;-83
2022/07/24 06:11:19;;;;;;;10.35;7.70;;;;;;;22.37;96.44;100220.00;5039577;28;20056;-83
2022/07/24 06:13:45;;;;;;;8.60;7.72;;;;;;;22.50;95.30;100225.13;5068958;28;20041;-84
2022/07/24 06:16:11;;;;;;;8.10;7.30;;;;;;;22.60;96.70;100221.53;5049208;28;20043;-84
2022/07/24 06:18:36;;;;;;;8.43;7.63;;;;;;;22.78;95.34;100225.91;5059516;28;20044;-84
2022/07/24 06:21:02;;;;;;;9.57;7.70;;;;;;;22.83;94.23;100219.47;5065671;28;20525;-85
2022/07/24 06:23:28;;;;;;;8.80;8.00;;;;;;;22.92;94.01;100221.25;5032844;28;20047;-85
2022/07/24 06:25:56;;;;;;;8.55;7.72;;;;;;;22.95;92.41;100220.97;5047083;28;20063;-84
2022/07/24 06:28:21;;;;;;;8.68;7.88;;;;;;;23.07;93.14;100222.50;5042956;28;20486;-83
2022/07/24 06:30:47;;;;;;;8.05;7.30;;;;;;;23.14;92.63;100221.94;5046028;28;20545;-83
2022/07/24 06:33:12;;;;;;;8.60;7.70;;;;;;;23.29;92.07;100227.31;5062618;28;20040;-84
2022/07/24 06:35:38;;;;;;;40.88;8.60;;;;;;;23.42;90.96;100240.88;5064726;28;20043;-84
2022/07/24 06:38:04;;;;;;;8.82;7.93;;;;;;;23.52;90.74;100228.00;5047759;28;20211;-85
2022/07/24 06:40:29;;;;;;;8.95;8.05;;;;;;;23.60;90.67;100240.31;5063416;28;20036;-85
2022/07/24 06:42:55;;;;;;;20.50;8.82;;;;;;;23.74;90.35;100227.88;5061989;28;20084;-84
2022/07/24 06:45:24;;;;;;;9.95;8.02;;;;;;;23.78;88.28;100219.13;5064017;28;20037;-82
2022/07/24 06:47:49;;;;;;;9.23;8.30;;;;;;;23.81;87.81;100223.72;5061265;28;20090;-84
2022/07/24 06:50:15;;;;;;;13.00;8.48;;;;;;;23.72;88.26;100227.63;5066711;28;20504;-83
2022/07/24 06:52:41;;;;;;;11.98;8.65;;;;;;;23.72;87.83;100224.03;5050527;28;20562;-83
2022/07/24 06:55:07;;;;;;;9.57;8.68;;;;;;;23.69;87.35;100228.69;5053549;28;20041;-82
2022/07/24 06:57:33;;;;;;;9.35;8.48;;;;;;;23.76;87.73;100230.19;5071573;28;20111;-82
2022/07/24 06:59:59;;;;;;;9.77;8.77;;;;;;;23.77;87.50;100234.56;5034799;28;20079;-82
2022/07/24 07:02:24;;;;;;;9.75;8.77;;;;;;;23.80;88.00;100231.44;5058526;28;20095;-82
2022/07/24 07:04:50;;;;;;;10.15;9.15;;;;;;;23.82;87.17;100223.19;5053193;28;20501;-83
2022/07/24 07:07:16;;;;;;;11.98;9.60;;;;;;;24.13;85.99;100225.56;5051643;28;20124;-82
2022/07/24 07:09:42;;;;;;;10.32;9.32;;;;;;;24.12;84.60;100224.03;5053810;28;20397;-83
2022/07/24 07:12:08;;;;;;;10.40;9.40;;;;;;;24.31;84.11;100223.38;5072479;28;20048;-83
2022/07/24 07:14:34;;;;;;;10.23;9.23;;;;;;;24.42;83.81;100226.16;5072864;28;20115;-83
2022/07/24 07:16:59;;;;;;;12.15;9.85;;;;;;;24.63;81.74;100219.47;5072643;28;20395;-83
2022/07/24 07:19:25;;;;;;;12.68;10.00;;;;;;;24.67;82.23;100216.34;5072659;28;20062;-83
2022/07/24 07:21:51;;;;;;;10.63;9.55;;;;;;;24.66;82.48;100209.16;5054238;28;20047;-84
2022/07/24 07:24:17;;;;;;;11.35;10.10;;;;;;;25.04;81.18;100221.41;5019214;28;20045;-83
2022/07/24 07:26:42;;;;;;;12.45;10.77;;;;;;;25.27;78.59;100227.63;5072603;28;20044;-83
2022/07/24 07:29:08;;;;;;;11.07;10.07;;;;;;;25.42;79.06;100225.88;5072473;28;20456;-82
2022/07/24 07:31:33;;;;;;;11.52;10.43;;;;;;;25.65;78.30;100209.31;5072571;28;20083;-82
2022/07/24 07:33:59;;;;;;;11.05;10.05;;;;;;;25.81;77.85;100218.91;5072238;28;20045;-82
2022/07/24 07:36:25;;;;;;;11.25;10.25;;;;;;;26.08;76.43;100208.44;5072758;28;20039;-83
2022/07/24 07:38:51;;;;;;;10.90;10.00;;;;;;;26.04;75.36;100208.75;5071941;28;20048;-83
2022/07/24 07:41:19;;;;;;;11.70;9.93;;;;;;;26.13;76.59;100210.41;5072055;28;20044;-83
2022/07/24 07:44:03;;;;;;;11.35;10.35;;;;;;;26.20;74.67;100210.59;5072246;28;20045;-83
2022/07/24 07:46:29;;;;;;;12.23;10.20;;;;;;;26.58;73.69;100196.22;5072574;28;20387;-84
2022/07/24 07:48:55;;;;;;;11.38;10.30;;;;;;;26.68;72.06;100198.13;5071725;28;20066;-83
2022/07/24 07:51:21;;;;;;;11.75;10.65;;;;;;;26.57;71.30;100192.63;5072011;28;20048;-84
2022/07/24 07:53:46;;;;;;;12.88;11.18;;;;;;;26.62;71.63;100200.28;5071412;28;20037;-84
2022/07/24 07:56:12;;;;;;;12.50;11.30;;;;;;;26.37;73.67;100196.06;5071805;28;20378;-83
2022/07/24 07:58:38;;;;;;;11.73;10.63;;;;;;;26.63;71.66;100201.06;5053829;28;20536;-83
2022/07/24 08:01:03;;;;;;;12.85;11.85;;;;;;;26.05;72.11;100198.13;5071567;28;20052;-82
2022/07/24 08:03:29;;;;;;;14.35;10.90;;;;;;;26.52;71.99;100219.09;5070792;28;20397;-84
2022/07/24 08:05:55;;;;;;;12.60;11.40;;;;;;;26.60;71.02;100208.63;5053651;28;20061;-84
2022/07/24 08:08:20;;;;;;;12.70;11.60;;;;;;;26.65;71.24;100216.25;5070374;28;20044;-84
2022/07/24 08:10:46;;;;;;;12.48;11.43;;;;;;;26.75;71.63;100211.69;5066261;28;20037;-84
2022/07/24 08:13:12;;;;;;;13.30;11.93;;;;;;;26.56;71.06;100211.03;5046803;28;20064;-84
2022/07/24 08:15:38;;;;;;;13.02;11.82;;;;;;;26.47;71.51;100204.97;5064404;28;20029;-85
2022/07/24 08:18:03;;;;;;;13.00;11.80;;;;;;;26.58;71.25;100205.53;5068706;28;20413;-85
2022/07/24 08:20:29;;;;;;;12.80;11.07;;;;;;;26.79;71.00;100212.13;5064416;28;20071;-82
2022/07/24 08:22:55;;;;;;;13.20;12.00;;;;;;;26.89;69.15;100201.88;5030178;28;20838;-83
2022/07/24 08:25:21;;;;;;;12.70;11.52;;;;;;;27.06;68.93;100198.69;5049863;28;20052;-83
2022/07/24 08:27:47;;;;;;;13.57;12.27;;;;;;;27.20;69.35;100208.00;5048308;28;20056;-83
2022/07/24 08:30:13;;;;;;;12.95;11.85;;;;;;;27.22;68.76;100199.69;5031455;28;20405;-83
2022/07/24 08:32:38;;;;;;;12.98;11.77;;;;;;;27.24;67.83;100202.75;5048730;28;20045;-83
2022/07/24 08:35:05;;;;;;;13.25;12.02;;;;;;;27.40;67.11;100201.63;5039745;28;20052;-83
2022/07/24 08:37:35;;;;;;;12.88;11.75;;;;;;;27.45;68.13;100206.47;5043371;28;20083;-83
2022/07/24 08:40:00;;;;;;;15.25;12.23;;;;;;;27.24;66.49;100212.06;5049522;28;20069;-83
2022/07/24 08:42:26;;;;;;;13.60;12.20;;;;;;;27.62;66.43;100206.88;5049028;28;20457;-84
2022/07/24 08:44:52;;;;;;;13.35;12.15;;;;;;;27.73;65.59;100209.47;5029949;28;20981;-83
2022/07/24 08:47:18;;;;;;;12.57;11.27;;;;;;;28.33;63.64;100208.59;5049483;28;20520;-84
2022/07/24 08:49:44;;;;;;;12.35;11.35;;;;;;;28.43;61.55;100206.78;5031284;28;20049;-83
2022/07/24 08:52:10;;;;;;;12.95;11.85;;;;;;;28.35;61.18;100205.94;5011450;28;20033;-83
2022/07/24 08:54:36;;;;;;;13.25;12.05;;;;;;;28.66;61.18;100216.31;5028185;28;20033;-83
2022/07/24 08:57:05;;;;;;;12.30;11.30;;;;;;;28.70;60.13;100198.84;5043849;28;20117;-83
2022/07/24 08:59:31;;;;;;;12.25;11.05;;;;;;;28.83;61.31;100209.41;5042309;28;20494;-83
2022/07/24 09:01:56;;;;;;;12.10;10.90;;;;;;;29.27;59.42;100213.09;5036756;28;20037;-82
2022/07/24 09:04:39;;;;;;;12.23;11.07;;;;;;;29.40;58.07;100216.59;5042449;28;20577;-83
2022/07/24 09:07:19;;;;;;;12.23;11.02;;;;;;;29.48;57.05;100208.84;5046075;28;20049;-83
2022/07/24 09:10:04;;;;;;;11.88;10.75;;;;;;;29.64;57.92;100207.56;5047968;28;20051;-83
2022/07/24 09:12:35;;;;;;;11.73;10.68;;;;;;;29.61;57.25;100217.28;5027837;28;20045;-84
2022/07/24 09:15:10;;;;;;;11.60;10.48;;;;;;;29.71;57.74;100205.31;5030278;28;20040;-84
2022/07/24 09:17:47;;;;;;;11.40;10.40;;;;;;;29.82;56.24;100213.53;5030973;28;20080;-83
2022/07/24 09:20:12;;;;;;;11.45;10.32;;;;;;;29.94;54.98;100206.94;5049119;28;20086;-83
2022/07/24 09:22:39;;;;;;;10.75;9.95;;;;;;;30.10;53.84;100214.19;5054446;28;20040;-84
2022/07/24 09:25:21;;;;;;;11.32;10.18;;;;;;;30.27;52.48;100210.78;5067457;28;20441;-84
2022/07/24 09:27:50;;;;;;;11.30;10.30;;;;;;;30.70;52.25;100211.97;5068375;28;20090;-84
2022/07/24 09:30:31;;;;;;;11.30;10.27;;;;;;;30.68;50.53;100218.28;5066548;28;20025;-83
2022/07/24 09:33:02;;;;;;;12.18;11.02;;;;;;;30.50;50.94;100214.47;5065229;28;20428;-83
2022/07/24 09:35:34;;;;;;;11.35;10.30;;;;;;;30.57;50.54;100223.63;5038362;28;20125;-84
2022/07/24 09:38:02;;;;;;;10.43;9.52;;;;;;;30.79;49.95;100208.53;5046211;28;20045;-83
2022/07/24 09:40:32;;;;;;;10.85;9.80;;;;;;;30.96;49.03;100206.59;5047718;28;20048;-83
2022/07/24 09:43:13;;;;;;;11.27;10.00;;;;;;;31.25;48.60;100218.59;5048418;28;20045;-83
2022/07/24 09:46:00;;;;;;;10.40;9.50;;;;;;;31.15;47.47;100222.63;5049352;28;20045;-83
2022/07/24 09:48:35;;;;;;;10.07;9.13;;;;;;;31.18;46.17;100219.34;5050339;28;20049;-83
2022/07/24 09:51:03;;;;;;;9.75;8.95;;;;;;;31.28;45.65;100220.28;5068373;28;20147;-82
2022/07/24 09:53:31;;;;;;;10.15;9.25;;;;;;;31.24;45.59;100217.06;5070631;28;20036;-83
2022/07/24 09:56:04;;;;;;;9.52;8.68;;;;;;;31.36;46.09;100217.41;5070652;28;20049;-83
2022/07/24 09:58:32;;;;;;;9.95;9.05;;;;;;;31.58;45.52;100207.22;5070341;28;20110;-84
2022/07/24 10:01:00;;;;;;;10.00;9.10;;;;;;;31.64;44.84;100217.13;5070367;28;20032;-83
2022/07/24 10:03:28;;;;;;;10.55;9.55;;;;;;;31.66;43.53;100225.16;5070453;28;20079;-84
2022/07/24 10:05:56;;;;;;;9.88;8.98;;;;;;;31.95;43.24;100222.72;5067938;28;20444;-84
2022/07/24 10:08:22;;;;;;;11.52;8.70;;;;;;;31.75;43.61;100215.91;5070191;28;20049;-84
2022/07/24 10:10:49;;;;;;;10.10;9.30;;;;;;;31.45;42.20;100229.03;5067904;28;20102;-84
2022/07/24 10:13:15;;;;;;;9.57;8.63;;;;;;;31.31;43.87;100218.38;5050243;28;20088;-84
2022/07/24 10:16:14;;;;;;;10.00;9.20;;;;;;;31.46;43.47;100229.81;5050400;28;20037;-84
2022/07/24 10:18:52;;;;;;;10.55;9.55;;;;;;;31.77;42.62;100225.47;5035996;28;20144;-84
2022/07/24 10:21:26;;;;;;;10.18;9.18;;;;;;;32.05;42.69;100227.22;5050053;28;20045;-84
2022/07/24 10:24:04;;;;;;;10.65;9.55;;;;;;;31.22;43.54;100228.31;5050259;28;20075;-84
2022/07/24 10:26:40;;;;;;;10.90;9.85;;;;;;;31.44;42.87;100221.78;5032782;28;20394;-84
2022/07/24 10:29:12;;;;;;;10.23;9.32;;;;;;;31.52;43.24;100223.84;5049505;28;20106;-84
2022/07/24 10:31:40;;;;;;;10.70;9.80;;;;;;;31.91;41.81;100223.09;5050006;28;20045;-84
2022/07/24 10:34:23;;;;;;;10.25;8.95;;;;;;;31.67;42.35;100218.06;5050193;28;20043;-83
2022/07/24 10:37:00;;;;;;;9.43;8.55;;;;;;;31.95;42.18;100211.97;5050443;28;20045;-84
2022/07/24 10:39:33;;;;;;;9.55;8.75;;;;;;;32.10;42.13;100217.66;5049951;28;20049;-84
2022/07/24 10:42:04;;;;;;;9.30;8.50;;;;;;;32.39;40.78;100198.69;5032610;28;20091;-84
2022/07/24 10:44:30;;;;;;;9.30;8.45;;;;;;;32.67;41.28;100211.13;5015799;28;20060;-84
2022/07/24 10:47:00;;;;;;;9.98;8.40;;;;;;;32.35;39.56;100211.94;5035721;28;20037;-84
2022/07/24 10:49:38;;;;;;;8.93;8.13;;;;;;;32.69;40.26;100209.19;5003305;28;20083;-84
2022/07/24 10:52:03;;;;;;;9.07;8.20;;;;;;;32.93;37.28;100203.97;5053577;28;20115;-83
2022/07/24 10:54:29;;;;;;;9.15;8.45;;;;;;;32.56;37.63;100211.56;5053661;28;20041;-84
2022/07/24 10:56:54;;;;;;;10.05;8.93;;;;;;;32.49;38.39;100209.53;5019444;28;20052;-84
2022/07/24 10:59:37;;;;;;;10.02;9.02;;;;;;;32.61;39.52;100193.38;5035286;28;20096;-84
2022/07/24 11:02:39;;;;;;;10.30;9.27;;;;;;;32.61;38.09;100190.50;5015663;28;20128;-84
2022/07/24 11:05:31;;;;;;;9.97;9.00;;;;;;;32.96;39.06;100205.69;4974818;28;20041;-84
2022/07/24 11:08:12;;;;;;;10.32;9.43;;;;;;;32.90;38.36;100200.19;5016134;28;20052;-84
2022/07/24 11:10:45;;;;;;;9.65;8.77;;;;;;;32.39;37.71;100187.19;5038343;28;20045;-83
2022/07/24 11:13:37;;;;;;;9.65;8.75;;;;;;;32.55;39.61;100185.00;5035348;28;20044;-83
2022/07/24 11:16:15;;;;;;;9.10;8.40;;;;;;;32.92;38.50;100180.22;5049288;28;20044;-84
2022/07/24 11:18:53;;;;;;;9.43;8.45;;;;;;;33.26;36.58;100173.75;5035448;28;20094;-84
2022/07/24 11:21:30;;;;;;;9.25;8.40;;;;;;;33.44;37.48;100183.88;5035158;28;20123;-84